createdAt,value
2018-11-28T00:01:52.975Z,2.20
2018-11-28T00:04:21.092Z,2.20
2018-11-28T00:06:49.227Z,2.20
2018-11-28T00:09:17.386Z,2.20
2018-11-28T00:11:45.549Z,2.20
2018-11-28T00:14:13.712Z,2.20
2018-11-28T00:16:41.998Z,2.20
2018-11-28T00:19:10.093Z,2.20
2018-11-28T00:21:38.208Z,2.20
2018-11-28T00:24:06.346Z,2.20
2018-11-28T00:26:34.487Z,2.20
2018-11-28T00:29:02.725Z,2.20
2018-11-28T00:31:30.867Z,2.20
2018-11-28T00:33:58.978Z,2.20
2018-11-28T00:36:27.165Z,2.10
2018-11-28T00:38:55.292Z,2.20
2018-11-28T00:41:23.409Z,2.20
2018-11-28T00:43:51.600Z,2.20
2018-11-28T00:46:19.733Z,2.20
2018-11-28T00:48:47.847Z,2.20
2018-11-28T00:51:15.932Z,2.20
2018-11-28T00:53:44.070Z,2.20
2018-11-28T00:56:12.338Z,2.30
2018-11-28T00:58:40.483Z,2.30
2018-11-28T01:01:08.632Z,2.30
2018-11-28T01:03:36.849Z,2.30
2018-11-28T01:06:05.036Z,2.30
2018-11-28T01:08:33.167Z,2.30
2018-11-28T01:11:01.333Z,2.30
2018-11-28T01:13:29.409Z,2.30
2018-11-28T01:15:57.564Z,2.30
2018-11-28T01:18:25.667Z,2.40
2018-11-28T01:20:53.837Z,2.40
2018-11-28T01:23:22.041Z,2.40
2018-11-28T01:25:50.181Z,2.50
2018-11-28T01:28:18.296Z,2.50
2018-11-28T01:30:46.432Z,2.50
2018-11-28T01:33:14.556Z,2.50
2018-11-28T01:35:42.667Z,2.50
2018-11-28T01:38:10.817Z,2.50
2018-11-28T01:40:38.937Z,2.50
2018-11-28T01:43:07.282Z,2.60
2018-11-28T01:45:35.371Z,2.50
2018-11-28T01:48:03.890Z,2.50
2018-11-28T01:50:31.994Z,2.50
2018-11-28T01:53:00.091Z,2.50
2018-11-28T01:55:28.349Z,2.50
2018-11-28T01:57:56.582Z,2.50
2018-11-28T02:00:24.995Z,2.60
2018-11-28T02:03:02.057Z,2.50
2018-11-28T02:05:30.149Z,2.60
2018-11-28T02:07:58.462Z,2.60
2018-11-28T02:10:26.588Z,2.50
2018-11-28T02:12:55.064Z,2.50
2018-11-28T02:15:23.730Z,2.50
2018-11-28T02:17:52.016Z,2.50
2018-11-28T02:20:20.264Z,2.50
2018-11-28T02:22:48.438Z,2.50
2018-11-28T02:25:17.458Z,2.50
2018-11-28T02:27:46.394Z,2.50
2018-11-28T02:30:16.584Z,2.50
2018-11-28T02:32:45.338Z,2.50
2018-11-28T02:35:14.554Z,2.50
2018-11-28T02:37:43.032Z,2.50
2018-11-28T02:40:13.237Z,2.50
2018-11-28T02:42:41.566Z,2.60
2018-11-28T02:45:15.014Z,2.60
2018-11-28T02:47:43.297Z,2.60
2018-11-28T02:50:11.488Z,2.60
2018-11-28T02:52:39.642Z,2.70
2018-11-28T02:55:09.918Z,2.70
2018-11-28T02:57:38.414Z,2.70
2018-11-28T03:00:18.347Z,2.80
2018-11-28T03:02:46.556Z,2.80
2018-11-28T03:05:14.918Z,2.80
2018-11-28T03:07:43.172Z,2.80
2018-11-28T03:10:12.991Z,2.90
2018-11-28T03:12:41.372Z,2.90
2018-11-28T03:15:17.459Z,2.90
2018-11-28T03:17:45.628Z,2.90
2018-11-28T03:20:13.720Z,2.90
2018-11-28T03:22:41.990Z,3.00
2018-11-28T03:25:10.788Z,3.00
2018-11-28T03:27:38.890Z,3.00
2018-11-28T03:30:11.141Z,3.00
2018-11-28T03:32:39.295Z,3.00
2018-11-28T03:35:09.208Z,3.00
2018-11-28T03:37:37.347Z,3.00
2018-11-28T03:40:06.020Z,3.10
2018-11-28T03:42:34.402Z,3.10
2018-11-28T03:45:02.970Z,3.10
2018-11-28T03:47:31.109Z,3.10
2018-11-28T03:49:59.193Z,3.10
2018-11-28T03:52:27.322Z,3.10
2018-11-28T03:54:55.426Z,3.10
2018-11-28T03:57:23.772Z,3.10
2018-11-28T03:59:51.912Z,3.10
2018-11-28T04:02:20.050Z,3.10
2018-11-28T04:04:48.192Z,3.10
2018-11-28T04:07:16.459Z,3.10
2018-11-28T04:09:44.554Z,3.10
2018-11-28T04:12:12.788Z,3.10
2018-11-28T04:14:40.974Z,3.10
2018-11-28T04:17:09.131Z,3.10
2018-11-28T04:19:37.265Z,3.10
2018-11-28T04:22:05.954Z,3.20
2018-11-28T04:24:34.056Z,3.20
2018-11-28T04:27:02.177Z,3.20
2018-11-28T04:29:30.289Z,3.20
2018-11-28T04:31:58.489Z,3.20
2018-11-28T04:34:26.660Z,3.20
2018-11-28T04:36:54.735Z,3.20
2018-11-28T04:39:22.929Z,3.30
2018-11-28T04:41:51.042Z,3.30
2018-11-28T04:44:19.178Z,3.30
2018-11-28T04:46:47.322Z,3.30
2018-11-28T04:49:15.417Z,3.30
2018-11-28T04:51:43.517Z,3.30
2018-11-28T04:54:11.735Z,3.30
2018-11-28T04:56:39.845Z,3.30
2018-11-28T04:59:08.090Z,3.30
2018-11-28T05:01:36.207Z,3.30
2018-11-28T05:04:04.641Z,3.30
2018-11-28T05:07:40.303Z,3.40
2018-11-28T05:10:09.734Z,3.40
2018-11-28T05:12:37.863Z,3.40
2018-11-28T05:16:38.523Z,3.40
2018-11-28T05:19:06.630Z,3.50
2018-11-28T05:21:34.813Z,3.50
2018-11-28T05:24:02.926Z,3.50
2018-11-28T05:26:31.108Z,3.50
2018-11-28T05:28:59.241Z,3.60
2018-11-28T05:31:27.410Z,3.60
2018-11-28T05:33:55.650Z,3.60
2018-11-28T05:36:23.819Z,3.70
2018-11-28T05:38:51.990Z,3.70
2018-11-28T05:41:20.080Z,3.80
2018-11-28T05:43:48.265Z,3.80
2018-11-28T05:46:16.390Z,3.80
2018-11-28T05:48:44.647Z,3.80
2018-11-28T05:51:12.853Z,3.90
2018-11-28T05:53:41.126Z,3.90
2018-11-28T05:56:09.950Z,3.90
2018-11-28T05:58:38.148Z,3.90
2018-11-28T06:01:06.449Z,3.90
2018-11-28T06:03:35.099Z,3.90
2018-11-28T06:06:03.248Z,3.90
2018-11-28T06:08:31.529Z,3.90
2018-11-28T06:10:59.603Z,3.90
2018-11-28T06:13:27.939Z,3.90
2018-11-28T06:15:56.187Z,3.90
2018-11-28T06:18:24.596Z,3.90
2018-11-28T06:20:52.829Z,3.90
2018-11-28T06:23:20.996Z,3.90
2018-11-28T06:25:49.243Z,3.90
2018-11-28T06:28:17.456Z,3.90
2018-11-28T06:30:45.891Z,3.90
2018-11-28T06:33:14.118Z,3.90
2018-11-28T06:35:42.372Z,3.90
2018-11-28T06:38:10.716Z,3.90
2018-11-28T06:40:38.826Z,3.90
2018-11-28T06:43:07.071Z,3.90
2018-11-28T06:45:35.432Z,3.90
2018-11-28T06:48:03.750Z,3.80
2018-11-28T06:50:31.860Z,3.80
2018-11-28T06:53:01.125Z,3.80
2018-11-28T06:55:29.297Z,3.80
2018-11-28T06:57:57.419Z,3.80
2018-11-28T07:00:25.533Z,3.80
2018-11-28T07:02:53.891Z,3.90
2018-11-28T07:05:22.555Z,3.80
2018-11-28T07:07:51.395Z,3.90
2018-11-28T07:10:20.561Z,3.90
2018-11-28T07:12:48.751Z,4.00
2018-11-28T07:15:18.271Z,4.00
2018-11-28T07:17:46.372Z,4.00
2018-11-28T07:20:15.421Z,4.00
2018-11-28T07:22:43.522Z,4.10
2018-11-28T07:25:15.580Z,4.10
2018-11-28T07:27:45.397Z,4.20
2018-11-28T07:30:15.011Z,4.20
2018-11-28T07:32:43.341Z,4.20
2018-11-28T07:35:12.240Z,4.30
2018-11-28T07:37:40.397Z,4.30
2018-11-28T07:40:14.631Z,4.30
2018-11-28T07:42:45.674Z,4.40
2018-11-28T07:45:13.827Z,4.40
2018-11-28T07:47:42.038Z,4.40
2018-11-28T07:50:10.369Z,4.40
2018-11-28T07:52:38.557Z,4.40
2018-11-28T07:55:08.975Z,4.40
2018-11-28T07:57:37.119Z,4.40
2018-11-28T08:00:09.623Z,4.40
2018-11-28T08:02:37.755Z,4.40
2018-11-28T08:05:07.003Z,4.50
2018-11-28T08:07:35.163Z,4.50
2018-11-28T08:10:03.362Z,4.50
2018-11-28T08:12:31.477Z,4.50
2018-11-28T08:14:59.582Z,4.60
2018-11-28T08:17:27.718Z,4.50
2018-11-28T08:19:55.815Z,4.60
2018-11-28T08:22:23.925Z,4.60
2018-11-28T08:24:52.037Z,4.70
2018-11-28T08:27:20.211Z,4.70
2018-11-28T08:29:48.316Z,4.70
2018-11-28T08:32:16.511Z,4.70
2018-11-28T08:34:44.653Z,4.80
2018-11-28T08:37:12.818Z,4.80
2018-11-28T08:39:41.003Z,4.80
2018-11-28T08:42:09.075Z,4.90
2018-11-28T08:44:37.191Z,4.90
2018-11-28T08:47:05.635Z,4.90
2018-11-28T08:49:33.752Z,5.00
2018-11-28T08:52:01.889Z,5.00
2018-11-28T08:54:30.043Z,5.00
2018-11-28T08:56:59.385Z,5.00
2018-11-28T08:59:26.489Z,5.10
2018-11-28T09:01:55.538Z,5.10
2018-11-28T09:04:23.719Z,5.10
2018-11-28T09:06:51.839Z,5.10
2018-11-28T09:09:20.930Z,5.20
2018-11-28T09:11:49.178Z,5.20
2018-11-28T09:14:17.305Z,5.30
2018-11-28T09:16:45.515Z,5.30
2018-11-28T09:19:13.635Z,5.30
2018-11-28T09:21:41.838Z,5.30
2018-11-28T09:24:10.031Z,5.30
2018-11-28T09:26:38.131Z,5.40
2018-11-28T09:29:06.345Z,5.50
2018-11-28T09:31:34.574Z,5.40
2018-11-28T09:34:02.987Z,5.50
2018-11-28T09:36:31.095Z,5.50
2018-11-28T09:38:59.263Z,5.50
2018-11-28T09:41:27.403Z,5.50
2018-11-28T09:43:55.471Z,5.60
2018-11-28T09:46:23.596Z,5.60
2018-11-28T09:48:51.720Z,5.60
2018-11-28T09:51:19.871Z,5.60
2018-11-28T09:53:48.000Z,5.60
2018-11-28T09:56:16.140Z,5.70
2018-11-28T09:58:44.264Z,5.70
2018-11-28T10:01:12.415Z,5.70
2018-11-28T10:03:40.581Z,5.70
2018-11-28T10:06:08.832Z,5.80
2018-11-28T10:08:37.089Z,5.80
2018-11-28T10:11:05.459Z,5.80
2018-11-28T10:13:33.588Z,5.80
2018-11-28T10:16:01.936Z,5.90
2018-11-28T10:18:30.413Z,5.90
2018-11-28T10:20:58.567Z,5.90
2018-11-28T10:23:26.714Z,5.90
2018-11-28T10:25:54.841Z,5.90
2018-11-28T10:28:22.929Z,5.90
2018-11-28T10:30:51.021Z,6.00
2018-11-28T10:33:19.131Z,6.00
2018-11-28T10:35:47.264Z,6.00
2018-11-28T10:38:15.376Z,6.00
2018-11-28T10:40:43.480Z,6.00
2018-11-28T10:43:11.653Z,6.10
2018-11-28T10:45:39.869Z,6.00
2018-11-28T10:48:10.473Z,6.10
2018-11-28T10:50:38.606Z,6.00
2018-11-28T10:53:07.052Z,6.10
2018-11-28T10:55:35.189Z,6.10
2018-11-28T10:58:03.812Z,6.20
2018-11-28T11:00:31.909Z,6.20
2018-11-28T11:03:00.254Z,6.20
2018-11-28T11:05:28.437Z,6.30
2018-11-28T11:07:56.599Z,6.30
2018-11-28T11:10:24.803Z,6.30
2018-11-28T11:12:52.914Z,6.30
2018-11-28T11:15:21.082Z,6.40
2018-11-28T11:17:49.303Z,6.40
2018-11-28T11:20:17.409Z,6.50
2018-11-28T11:22:45.612Z,6.50
2018-11-28T11:25:13.744Z,6.50
2018-11-28T11:27:41.927Z,6.50
2018-11-28T11:30:10.438Z,6.50
2018-11-28T11:32:38.641Z,6.60
2018-11-28T11:35:08.231Z,6.60
2018-11-28T11:37:36.430Z,6.60
2018-11-28T11:40:08.286Z,6.70
2018-11-28T11:42:36.478Z,6.70
2018-11-28T11:45:05.870Z,6.80
2018-11-28T11:47:33.955Z,6.80
2018-11-28T11:50:02.176Z,6.90
2018-11-28T11:52:30.364Z,6.90
2018-11-28T11:54:58.467Z,6.90
2018-11-28T11:57:26.703Z,7.00
2018-11-28T11:59:54.856Z,7.00
2018-11-28T12:02:23.065Z,7.00
2018-11-28T12:04:51.187Z,7.00
2018-11-28T12:07:19.308Z,7.00
2018-11-28T12:09:47.457Z,7.10
2018-11-28T12:12:15.618Z,7.10
2018-11-28T12:14:43.781Z,7.10
2018-11-28T12:17:11.898Z,7.10
2018-11-28T12:19:40.073Z,7.10
2018-11-28T12:22:08.286Z,7.20
2018-11-28T12:24:36.431Z,7.20
2018-11-28T12:27:05.088Z,7.20
2018-11-28T12:29:33.228Z,7.30
2018-11-28T12:32:01.402Z,7.30
2018-11-28T12:34:29.612Z,7.30
2018-11-28T12:36:57.763Z,7.30
2018-11-28T12:39:25.832Z,7.40
2018-11-28T12:41:53.954Z,7.40
2018-11-28T12:44:22.037Z,7.30
2018-11-28T12:46:50.511Z,7.40
2018-11-28T12:49:19.002Z,7.40
2018-11-28T12:51:53.790Z,7.30
2018-11-28T12:54:21.925Z,7.40
2018-11-28T12:56:50.049Z,7.40
2018-11-28T12:59:18.198Z,7.40
2018-11-28T13:01:46.309Z,7.40
2018-11-28T13:04:14.559Z,7.30
2018-11-28T13:06:43.306Z,7.30
2018-11-28T13:09:11.584Z,7.20
2018-11-28T13:11:40.900Z,7.20
2018-11-28T13:14:09.425Z,7.20
2018-11-28T13:16:37.742Z,7.20
2018-11-28T13:19:06.054Z,7.20
2018-11-28T13:21:34.277Z,7.30
2018-11-28T13:24:02.468Z,7.30
2018-11-28T13:26:30.586Z,7.30
2018-11-28T13:28:58.728Z,7.30
2018-11-28T13:31:26.856Z,7.30
2018-11-28T13:33:54.980Z,7.30
2018-11-28T13:36:23.156Z,7.30
2018-11-28T13:38:51.418Z,7.40
2018-11-28T13:41:19.570Z,7.40
2018-11-28T13:43:47.720Z,7.40
2018-11-28T13:46:15.952Z,7.40
2018-11-28T13:48:44.222Z,7.40
2018-11-28T13:51:12.351Z,7.40
2018-11-28T13:53:40.439Z,7.40
2018-11-28T13:58:36.846Z,7.50
2018-11-28T14:01:05.317Z,7.50
2018-11-28T14:03:33.572Z,7.50
2018-11-28T14:06:01.680Z,7.50
2018-11-28T14:08:29.895Z,7.50
2018-11-28T14:10:58.076Z,7.50
2018-11-28T14:13:26.208Z,7.50
2018-11-28T14:15:54.375Z,7.50
2018-11-28T14:19:25.639Z,7.50
2018-11-28T14:21:53.743Z,7.40
2018-11-28T14:24:23.259Z,7.50
2018-11-28T14:26:51.414Z,7.40
2018-11-28T14:29:19.644Z,7.40
2018-11-28T14:31:47.781Z,7.40
2018-11-28T14:34:16.029Z,7.40
2018-11-28T14:36:44.172Z,7.50
2018-11-28T14:39:12.384Z,7.40
2018-11-28T14:41:40.530Z,7.40
2018-11-28T14:44:08.669Z,7.40
2018-11-28T14:46:36.801Z,7.40
2018-11-28T14:49:04.967Z,7.40
2018-11-28T14:51:33.226Z,7.40
2018-11-28T14:54:02.372Z,7.40
2018-11-28T14:56:30.463Z,7.40
2018-11-28T14:58:58.591Z,7.40
2018-11-28T15:01:26.713Z,7.40
2018-11-28T15:03:55.414Z,7.40
2018-11-28T15:06:29.723Z,7.40
2018-11-28T15:08:57.872Z,7.40
2018-11-28T15:11:25.940Z,7.40
2018-11-28T15:13:54.225Z,7.40
2018-11-28T15:16:22.306Z,7.40
2018-11-28T15:18:50.538Z,7.20
2018-11-28T15:21:18.680Z,7.20
2018-11-28T15:23:46.866Z,7.20
2018-11-28T15:26:15.141Z,7.00
2018-11-28T15:28:43.421Z,6.90
2018-11-28T15:31:11.765Z,6.90
2018-11-28T15:33:39.860Z,6.80
2018-11-28T15:36:08.056Z,6.80
2018-11-28T15:38:36.589Z,6.70
2018-11-28T15:41:05.351Z,6.70
2018-11-28T15:43:33.646Z,6.70
2018-11-28T15:46:02.042Z,6.60
2018-11-28T15:48:30.215Z,6.60
2018-11-28T15:50:58.373Z,6.60
2018-11-28T15:53:26.651Z,6.60
2018-11-28T15:55:54.953Z,6.60
2018-11-28T15:58:23.094Z,6.60
2018-11-28T16:00:51.305Z,6.70
2018-11-28T16:03:19.499Z,6.60
2018-11-28T16:05:47.810Z,6.60
2018-11-28T16:08:15.895Z,6.60
2018-11-28T16:10:44.113Z,6.60
2018-11-28T16:13:15.013Z,6.60
2018-11-28T16:15:49.839Z,6.60
2018-11-28T16:18:18.055Z,6.60
2018-11-28T16:20:47.072Z,6.60
2018-11-28T16:23:15.371Z,6.60
2018-11-28T16:25:43.499Z,6.60
2018-11-28T16:28:12.545Z,6.60
2018-11-28T16:30:39.938Z,6.60
2018-11-28T16:33:08.247Z,6.60
2018-11-28T16:35:37.152Z,6.60
2018-11-28T16:38:05.994Z,6.60
2018-11-28T16:40:34.180Z,6.50
2018-11-28T16:43:02.392Z,6.50
2018-11-28T16:45:30.559Z,6.50
2018-11-28T16:47:58.716Z,6.40
2018-11-28T16:50:27.117Z,6.40
2018-11-28T16:52:55.386Z,6.30
2018-11-28T16:55:23.536Z,6.40
2018-11-28T16:57:52.843Z,6.30
2018-11-28T17:00:23.490Z,6.30
2018-11-28T17:02:52.685Z,6.30
2018-11-28T17:05:21.815Z,6.30
2018-11-28T17:07:50.469Z,6.30
2018-11-28T17:10:23.778Z,6.20
2018-11-28T17:12:52.507Z,6.20
2018-11-28T17:15:20.707Z,6.20
2018-11-28T17:17:48.906Z,6.10
2018-11-28T17:20:18.991Z,6.10
2018-11-28T17:22:47.908Z,6.10
2018-11-28T17:25:19.327Z,6.00
2018-11-28T17:27:47.464Z,6.00
2018-11-28T17:30:19.066Z,6.00
2018-11-28T17:35:10.224Z,6.00
2018-11-28T17:37:38.609Z,6.00
2018-11-28T17:40:09.930Z,6.00
2018-11-28T17:42:38.159Z,6.00
2018-11-28T17:45:09.966Z,6.00
2018-11-28T17:47:38.143Z,6.00
2018-11-28T17:50:11.337Z,6.00
2018-11-28T17:52:39.552Z,6.00
2018-11-28T17:55:10.325Z,6.00
2018-11-28T17:57:38.450Z,6.00
2018-11-28T18:00:10.576Z,6.10
2018-11-28T18:02:38.728Z,6.10
2018-11-28T18:05:08.185Z,6.10
2018-11-28T18:07:36.462Z,6.10
2018-11-28T18:10:08.989Z,6.10
2018-11-28T18:12:37.302Z,6.10
2018-11-28T18:15:07.495Z,6.10
2018-11-28T18:17:35.846Z,6.20
2018-11-28T18:20:04.230Z,6.20
2018-11-28T18:22:32.410Z,6.20
2018-11-28T18:25:00.528Z,6.20
2018-11-28T18:27:28.671Z,6.20
2018-11-28T18:29:56.907Z,6.20
2018-11-28T18:32:25.363Z,6.30
2018-11-28T18:34:53.689Z,6.30
2018-11-28T18:37:24.258Z,6.30
2018-11-28T18:39:50.125Z,6.30
2018-11-28T18:42:18.255Z,6.40
2018-11-28T18:44:46.773Z,6.30
2018-11-28T18:47:14.957Z,6.30
2018-11-28T18:49:43.224Z,6.40
2018-11-28T18:52:11.468Z,6.40
2018-11-28T18:54:39.643Z,6.40
2018-11-28T18:57:07.805Z,6.40
2018-11-28T18:59:36.063Z,6.50
2018-11-28T19:02:04.579Z,6.40
2018-11-28T19:04:32.853Z,6.40
2018-11-28T19:07:01.064Z,6.40
2018-11-28T19:09:29.450Z,6.40
2018-11-28T19:11:57.573Z,6.50
2018-11-28T19:14:26.047Z,6.40
2018-11-28T19:16:54.475Z,6.50
2018-11-28T19:19:22.646Z,6.50
2018-11-28T19:21:50.734Z,6.50
2018-11-28T19:24:18.957Z,6.50
2018-11-28T19:26:47.106Z,6.50
2018-11-28T19:29:15.318Z,6.50
2018-11-28T19:31:43.678Z,6.50
2018-11-28T19:34:18.055Z,6.50
2018-11-28T19:36:40.348Z,6.50
2018-11-28T19:39:09.333Z,6.50
2018-11-28T19:41:37.792Z,6.50
2018-11-28T19:46:40.933Z,6.60
2018-11-28T19:49:09.874Z,6.60
2018-11-28T19:51:38.105Z,6.60
2018-11-28T19:54:06.332Z,6.60
2018-11-28T19:56:38.563Z,6.60
2018-11-28T19:59:06.694Z,6.60
2018-11-28T20:01:34.977Z,6.60
2018-11-28T20:04:03.207Z,6.60
2018-11-28T20:06:31.352Z,6.70
2018-11-28T20:08:59.521Z,6.70
2018-11-28T20:11:27.639Z,6.70
2018-11-28T20:13:55.926Z,6.70
2018-11-28T20:16:24.061Z,6.70
2018-11-28T20:18:52.314Z,6.70
2018-11-28T20:21:20.475Z,6.70
2018-11-28T20:23:48.628Z,6.70
2018-11-28T20:26:16.918Z,6.70
2018-11-28T20:28:45.111Z,6.70
2018-11-28T20:31:13.239Z,6.70
2018-11-28T20:33:41.385Z,6.70
2018-11-28T20:36:09.580Z,6.80
2018-11-28T20:38:37.709Z,6.80
2018-11-28T20:41:06.005Z,6.80
2018-11-28T20:43:34.333Z,6.80
2018-11-28T20:46:02.562Z,6.80
2018-11-28T20:48:30.746Z,6.80
2018-11-28T20:50:59.428Z,6.80
2018-11-28T20:53:27.646Z,6.80
2018-11-28T20:55:55.865Z,6.80
2018-11-28T20:58:24.055Z,6.80
2018-11-28T21:00:52.250Z,6.80
2018-11-28T21:03:20.526Z,6.90
2018-11-28T21:05:48.695Z,6.90
2018-11-28T21:08:16.880Z,6.80
2018-11-28T21:10:45.005Z,6.80
2018-11-28T21:13:13.605Z,6.90
2018-11-28T21:15:43.135Z,6.90
2018-11-28T21:18:11.290Z,6.80
2018-11-28T21:20:40.764Z,6.80
2018-11-28T21:23:11.495Z,6.80
2018-11-28T21:25:39.650Z,6.80
2018-11-28T21:28:07.965Z,6.80
2018-11-28T21:30:36.756Z,6.90
2018-11-28T21:33:06.056Z,6.90
2018-11-28T21:35:35.689Z,6.90
2018-11-28T21:38:04.145Z,6.90
2018-11-28T21:40:32.718Z,6.90
2018-11-28T21:43:01.058Z,6.90
2018-11-28T21:45:29.215Z,7.00
2018-11-28T21:47:57.335Z,7.00
2018-11-28T21:50:25.525Z,7.00
2018-11-28T21:52:53.636Z,7.00
2018-11-28T21:55:23.521Z,7.00
2018-11-28T21:57:51.705Z,7.10
2018-11-28T22:00:23.048Z,7.10
2018-11-28T22:02:51.255Z,7.10
2018-11-28T22:05:19.392Z,7.10
2018-11-28T22:07:47.556Z,7.10
2018-11-28T22:10:18.487Z,7.10
2018-11-28T22:12:46.773Z,7.20
2018-11-28T22:15:15.759Z,7.20
2018-11-28T22:18:02.378Z,7.20
2018-11-28T22:20:30.714Z,7.10
2018-11-28T22:22:59.004Z,7.10
2018-11-28T22:25:27.233Z,7.20
2018-11-28T22:27:55.673Z,7.10
2018-11-28T22:30:27.021Z,7.10
2018-11-28T22:32:55.279Z,7.10
2018-11-28T22:35:23.416Z,7.10
2018-11-28T22:37:51.573Z,7.10
2018-11-28T22:40:22.602Z,7.20
2018-11-28T22:42:50.715Z,7.20
2018-11-28T22:45:20.244Z,7.10
2018-11-28T22:47:48.404Z,7.10
2018-11-28T22:50:16.603Z,7.20
2018-11-28T22:52:44.737Z,7.20
2018-11-28T22:55:14.175Z,7.20
2018-11-28T22:57:42.331Z,7.20
2018-11-28T23:00:17.518Z,7.20
2018-11-28T23:03:17.440Z,7.20
2018-11-28T23:05:47.906Z,7.20
2018-11-28T23:08:17.640Z,7.20
2018-11-28T23:10:46.199Z,7.20
2018-11-28T23:13:17.743Z,7.20
2018-11-28T23:15:46.083Z,7.20
2018-11-28T23:18:14.233Z,7.20
2018-11-28T23:20:42.904Z,7.20
2018-11-28T23:23:12.669Z,7.30
2018-11-28T23:25:40.821Z,7.30
2018-11-28T23:28:08.996Z,7.30
2018-11-28T23:30:37.813Z,7.40
2018-11-28T23:33:08.333Z,7.40
2018-11-28T23:35:35.601Z,7.40
2018-11-28T23:38:04.114Z,7.40
2018-11-28T23:40:32.247Z,7.40
2018-11-28T23:43:00.397Z,7.50
2018-11-28T23:45:28.610Z,7.50
2018-11-28T23:47:56.720Z,7.50
2018-11-28T23:50:25.302Z,7.50
2018-11-28T23:52:54.369Z,7.60
2018-11-28T23:55:24.490Z,7.60
2018-11-28T23:57:52.706Z,7.60
